sensor_id;sensor_type;location;lat;lon;timestamp;P1;durP1;ratioP1;P2;durP2;ratioP2
61460;SDS011;47325;50.506;4.472;2023-02-23T00:05:08;21.30;;;13.80;;
61460;SDS011;47325;50.506;4.472;2023-02-23T00:10:51;22.30;;;14.20;;
61460;SDS011;47325;50.506;4.472;2023-02-23T00:16:35;22.30;;;13.90;;
61460;SDS011;47325;50.506;4.472;2023-02-23T00:22:19;22.00;;;14.00;;
61460;SDS011;47325;50.506;4.472;2023-02-23T00:28:03;21.90;;;14.10;;
61460;SDS011;47325;50.506;4.472;2023-02-23T00:33:47;21.40;;;13.60;;
61460;SDS011;47325;50.506;4.472;2023-02-23T00:39:31;20.80;;;13.50;;
61460;SDS011;47325;50.506;4.472;2023-02-23T00:45:15;21.40;;;13.30;;
61460;SDS011;47325;50.506;4.472;2023-02-23T00:51:00;20.60;;;13.40;;
61460;SDS011;47325;50.506;4.472;2023-02-23T00:56:45;20.90;;;12.90;;
61460;SDS011;47325;50.506;4.472;2023-02-23T01:02:29;20.00;;;13.20;;
61460;SDS011;47325;50.506;4.472;2023-02-23T01:08:13;18.70;;;12.80;;
61460;SDS011;47325;50.506;4.472;2023-02-23T01:13:58;19.00;;;12.30;;
61460;SDS011;47325;50.506;4.472;2023-02-23T01:19:42;18.80;;;12.30;;
61460;SDS011;47325;50.506;4.472;2023-02-23T01:25:26;18.30;;;12.50;;
61460;SDS011;47325;50.506;4.472;2023-02-23T01:31:11;18.30;;;12.80;;
61460;SDS011;47325;50.506;4.472;2023-02-23T01:36:56;18.00;;;11.80;;
61460;SDS011;47325;50.506;4.472;2023-02-23T01:42:43;18.60;;;12.40;;
61460;SDS011;47325;50.506;4.472;2023-02-23T01:48:27;17.80;;;12.10;;
61460;SDS011;47325;50.506;4.472;2023-02-23T01:54:17;17.50;;;11.90;;
61460;SDS011;47325;50.506;4.472;2023-02-23T02:00:02;17.70;;;11.60;;
61460;SDS011;47325;50.506;4.472;2023-02-23T02:05:47;20.70;;;12.10;;
61460;SDS011;47325;50.506;4.472;2023-02-23T02:11:32;19.40;;;12.10;;
61460;SDS011;47325;50.506;4.472;2023-02-23T02:17:19;21.30;;;12.30;;
61460;SDS011;47325;50.506;4.472;2023-02-23T02:23:13;19.10;;;12.30;;
61460;SDS011;47325;50.506;4.472;2023-02-23T02:29:19;18.70;;;12.30;;
61460;SDS011;47325;50.506;4.472;2023-02-23T02:41:07;18.30;;;12.20;;
61460;SDS011;47325;50.506;4.472;2023-02-23T02:46:53;18.70;;;11.80;;
61460;SDS011;47325;50.506;4.472;2023-02-23T02:52:42;19.00;;;12.30;;
61460;SDS011;47325;50.506;4.472;2023-02-23T02:58:27;18.50;;;11.70;;
61460;SDS011;47325;50.506;4.472;2023-02-23T03:04:23;18.40;;;11.90;;
61460;SDS011;47325;50.506;4.472;2023-02-23T03:10:09;18.10;;;11.60;;
61460;SDS011;47325;50.506;4.472;2023-02-23T03:15:58;17.30;;;11.00;;
61460;SDS011;47325;50.506;4.472;2023-02-23T03:21:46;19.00;;;11.40;;
61460;SDS011;47325;50.506;4.472;2023-02-23T03:27:37;16.40;;;10.90;;
61460;SDS011;47325;50.506;4.472;2023-02-23T03:33:23;19.60;;;12.20;;
61460;SDS011;47325;50.506;4.472;2023-02-23T03:39:12;18.30;;;11.60;;
61460;SDS011;47325;50.506;4.472;2023-02-23T03:45:00;19.00;;;11.80;;
61460;SDS011;47325;50.506;4.472;2023-02-23T03:50:48;19.10;;;12.30;;
61460;SDS011;47325;50.506;4.472;2023-02-23T03:56:34;20.40;;;12.50;;
61460;SDS011;47325;50.506;4.472;2023-02-23T04:02:21;20.70;;;12.10;;
61460;SDS011;47325;50.506;4.472;2023-02-23T04:08:08;19.80;;;12.10;;
61460;SDS011;47325;50.506;4.472;2023-02-23T04:13:53;19.80;;;11.70;;
61460;SDS011;47325;50.506;4.472;2023-02-23T04:19:41;21.00;;;12.40;;
61460;SDS011;47325;50.506;4.472;2023-02-23T04:25:31;19.30;;;11.60;;
61460;SDS011;47325;50.506;4.472;2023-02-23T04:31:15;21.20;;;12.50;;
61460;SDS011;47325;50.506;4.472;2023-02-23T04:37:03;21.30;;;12.60;;
61460;SDS011;47325;50.506;4.472;2023-02-23T04:42:46;23.40;;;12.90;;
61460;SDS011;47325;50.506;4.472;2023-02-23T04:48:30;20.60;;;12.00;;
61460;SDS011;47325;50.506;4.472;2023-02-23T04:54:14;21.60;;;12.30;;
61460;SDS011;47325;50.506;4.472;2023-02-23T04:59:58;22.00;;;12.30;;
61460;SDS011;47325;50.506;4.472;2023-02-23T05:05:42;22.30;;;12.70;;
61460;SDS011;47325;50.506;4.472;2023-02-23T05:11:29;22.80;;;12.50;;
61460;SDS011;47325;50.506;4.472;2023-02-23T05:17:13;22.10;;;12.20;;
61460;SDS011;47325;50.506;4.472;2023-02-23T05:22:58;23.90;;;12.00;;
61460;SDS011;47325;50.506;4.472;2023-02-23T05:28:42;23.30;;;12.80;;
61460;SDS011;47325;50.506;4.472;2023-02-23T05:34:27;25.80;;;12.80;;
61460;SDS011;47325;50.506;4.472;2023-02-23T05:40:12;24.80;;;12.60;;
61460;SDS011;47325;50.506;4.472;2023-02-23T05:45:56;24.10;;;12.40;;
61460;SDS011;47325;50.506;4.472;2023-02-23T05:51:40;27.30;;;13.30;;
61460;SDS011;47325;50.506;4.472;2023-02-23T05:57:24;28.60;;;13.60;;
61460;SDS011;47325;50.506;4.472;2023-02-23T06:03:08;30.10;;;13.90;;
61460;SDS011;47325;50.506;4.472;2023-02-23T06:08:51;28.20;;;13.60;;
61460;SDS011;47325;50.506;4.472;2023-02-23T06:14:35;29.20;;;13.70;;
61460;SDS011;47325;50.506;4.472;2023-02-23T06:20:20;33.10;;;14.70;;
61460;SDS011;47325;50.506;4.472;2023-02-23T06:26:04;32.10;;;13.80;;
61460;SDS011;47325;50.506;4.472;2023-02-23T06:31:47;29.40;;;13.30;;
61460;SDS011;47325;50.506;4.472;2023-02-23T06:37:32;31.00;;;13.40;;
61460;SDS011;47325;50.506;4.472;2023-02-23T06:43:17;32.80;;;14.10;;
61460;SDS011;47325;50.506;4.472;2023-02-23T06:49:04;33.40;;;14.20;;
61460;SDS011;47325;50.506;4.472;2023-02-23T06:54:48;29.40;;;13.60;;
61460;SDS011;47325;50.506;4.472;2023-02-23T07:00:32;28.00;;;12.40;;
61460;SDS011;47325;50.506;4.472;2023-02-23T07:06:16;31.80;;;13.60;;
61460;SDS011;47325;50.506;4.472;2023-02-23T07:12:00;30.20;;;14.20;;
61460;SDS011;47325;50.506;4.472;2023-02-23T07:17:44;31.10;;;13.60;;
61460;SDS011;47325;50.506;4.472;2023-02-23T07:23:28;30.90;;;13.10;;
61460;SDS011;47325;50.506;4.472;2023-02-23T07:29:12;30.50;;;13.20;;
61460;SDS011;47325;50.506;4.472;2023-02-23T07:34:56;30.90;;;13.30;;
61460;SDS011;47325;50.506;4.472;2023-02-23T07:40:39;27.00;;;13.10;;
61460;SDS011;47325;50.506;4.472;2023-02-23T07:46:23;32.20;;;13.80;;
61460;SDS011;47325;50.506;4.472;2023-02-23T07:52:07;30.80;;;13.50;;
61460;SDS011;47325;50.506;4.472;2023-02-23T07:57:51;30.90;;;13.80;;
61460;SDS011;47325;50.506;4.472;2023-02-23T08:03:35;29.40;;;13.90;;
61460;SDS011;47325;50.506;4.472;2023-02-23T08:09:19;27.60;;;13.40;;
61460;SDS011;47325;50.506;4.472;2023-02-23T08:15:04;31.10;;;13.80;;
61460;SDS011;47325;50.506;4.472;2023-02-23T08:20:47;30.00;;;13.10;;
61460;SDS011;47325;50.506;4.472;2023-02-23T08:26:31;32.20;;;14.40;;
61460;SDS011;47325;50.506;4.472;2023-02-23T08:32:17;31.80;;;14.50;;
61460;SDS011;47325;50.506;4.472;2023-02-23T08:38:01;30.50;;;13.80;;
61460;SDS011;47325;50.506;4.472;2023-02-23T08:43:45;30.60;;;14.70;;
61460;SDS011;47325;50.506;4.472;2023-02-23T08:49:29;33.60;;;14.80;;
61460;SDS011;47325;50.506;4.472;2023-02-23T08:55:13;32.50;;;14.70;;
61460;SDS011;47325;50.506;4.472;2023-02-23T09:00:58;33.70;;;15.10;;
61460;SDS011;47325;50.506;4.472;2023-02-23T09:06:43;32.20;;;14.60;;
61460;SDS011;47325;50.506;4.472;2023-02-23T09:12:27;34.20;;;15.70;;
61460;SDS011;47325;50.506;4.472;2023-02-23T09:18:11;33.20;;;15.00;;
61460;SDS011;47325;50.506;4.472;2023-02-23T09:23:55;33.20;;;15.10;;
61460;SDS011;47325;50.506;4.472;2023-02-23T09:29:39;34.60;;;15.30;;
61460;SDS011;47325;50.506;4.472;2023-02-23T09:35:23;33.40;;;15.40;;
61460;SDS011;47325;50.506;4.472;2023-02-23T09:41:08;33.10;;;15.30;;
61460;SDS011;47325;50.506;4.472;2023-02-23T09:46:58;36.20;;;15.70;;
61460;SDS011;47325;50.506;4.472;2023-02-23T09:52:48;32.20;;;15.00;;
61460;SDS011;47325;50.506;4.472;2023-02-23T09:58:34;36.50;;;16.10;;
61460;SDS011;47325;50.506;4.472;2023-02-23T10:04:19;36.40;;;15.10;;
61460;SDS011;47325;50.506;4.472;2023-02-23T10:10:06;36.90;;;15.90;;
61460;SDS011;47325;50.506;4.472;2023-02-23T10:15:55;33.70;;;14.50;;
61460;SDS011;47325;50.506;4.472;2023-02-23T10:21:40;68.70;;;21.60;;
61460;SDS011;47325;50.506;4.472;2023-02-23T10:27:25;51.50;;;18.70;;
61460;SDS011;47325;50.506;4.472;2023-02-23T10:33:14;49.30;;;17.60;;
61460;SDS011;47325;50.506;4.472;2023-02-23T10:38:58;44.20;;;16.70;;
61460;SDS011;47325;50.506;4.472;2023-02-23T10:44:42;46.00;;;18.00;;
61460;SDS011;47325;50.506;4.472;2023-02-23T10:50:26;43.70;;;16.70;;
61460;SDS011;47325;50.506;4.472;2023-02-23T10:56:12;41.40;;;15.70;;
61460;SDS011;47325;50.506;4.472;2023-02-23T11:01:56;38.60;;;15.40;;
61460;SDS011;47325;50.506;4.472;2023-02-23T11:07:45;67.70;;;24.50;;
61460;SDS011;47325;50.506;4.472;2023-02-23T11:13:32;41.10;;;16.40;;
61460;SDS011;47325;50.506;4.472;2023-02-23T11:19:20;41.00;;;15.80;;
61460;SDS011;47325;50.506;4.472;2023-02-23T11:25:23;41.70;;;16.20;;
61460;SDS011;47325;50.506;4.472;2023-02-23T11:31:07;38.30;;;16.00;;
61460;SDS011;47325;50.506;4.472;2023-02-23T11:37:01;35.70;;;15.40;;
61460;SDS011;47325;50.506;4.472;2023-02-23T11:42:47;38.40;;;15.70;;
61460;SDS011;47325;50.506;4.472;2023-02-23T11:48:33;36.10;;;16.10;;
61460;SDS011;47325;50.506;4.472;2023-02-23T11:54:20;36.10;;;16.00;;
61460;SDS011;47325;50.506;4.472;2023-02-23T12:00:07;34.50;;;15.70;;
61460;SDS011;47325;50.506;4.472;2023-02-23T12:05:53;33.60;;;15.10;;
61460;SDS011;47325;50.506;4.472;2023-02-23T12:11:39;32.30;;;14.00;;
61460;SDS011;47325;50.506;4.472;2023-02-23T12:17:32;34.30;;;15.00;;
61460;SDS011;47325;50.506;4.472;2023-02-23T12:23:19;31.80;;;14.40;;
61460;SDS011;47325;50.506;4.472;2023-02-23T12:29:09;33.60;;;14.80;;
61460;SDS011;47325;50.506;4.472;2023-02-23T12:34:57;33.20;;;15.30;;
61460;SDS011;47325;50.506;4.472;2023-02-23T12:40:42;37.20;;;14.30;;
61460;SDS011;47325;50.506;4.472;2023-02-23T12:46:27;34.20;;;15.40;;
61460;SDS011;47325;50.506;4.472;2023-02-23T12:52:20;33.00;;;14.60;;
61460;SDS011;47325;50.506;4.472;2023-02-23T12:58:05;34.70;;;14.60;;
61460;SDS011;47325;50.506;4.472;2023-02-23T13:10:04;29.50;;;14.20;;
61460;SDS011;47325;50.506;4.472;2023-02-23T13:15:57;26.60;;;14.00;;
61460;SDS011;47325;50.506;4.472;2023-02-23T13:21:43;28.60;;;14.50;;
61460;SDS011;47325;50.506;4.472;2023-02-23T13:27:33;29.30;;;13.50;;
61460;SDS011;47325;50.506;4.472;2023-02-23T13:33:20;28.50;;;13.30;;
61460;SDS011;47325;50.506;4.472;2023-02-23T13:45:37;24.90;;;12.90;;
61460;SDS011;47325;50.506;4.472;2023-02-23T13:51:27;24.40;;;12.80;;
61460;SDS011;47325;50.506;4.472;2023-02-23T13:57:15;25.10;;;12.70;;
61460;SDS011;47325;50.506;4.472;2023-02-23T14:02:59;25.20;;;12.80;;
61460;SDS011;47325;50.506;4.472;2023-02-23T14:08:49;24.60;;;12.60;;
61460;SDS011;47325;50.506;4.472;2023-02-23T14:14:43;27.70;;;13.50;;
61460;SDS011;47325;50.506;4.472;2023-02-23T14:26:40;26.20;;;13.40;;
61460;SDS011;47325;50.506;4.472;2023-02-23T14:32:33;23.40;;;12.60;;
61460;SDS011;47325;50.506;4.472;2023-02-23T14:38:27;24.80;;;12.80;;
61460;SDS011;47325;50.506;4.472;2023-02-23T14:44:29;26.10;;;13.20;;
61460;SDS011;47325;50.506;4.472;2023-02-23T14:50:16;27.30;;;13.20;;
61460;SDS011;47325;50.506;4.472;2023-02-23T14:56:03;27.20;;;13.70;;
61460;SDS011;47325;50.506;4.472;2023-02-23T15:01:48;28.80;;;14.40;;
61460;SDS011;47325;50.506;4.472;2023-02-23T15:07:36;28.60;;;14.20;;
61460;SDS011;47325;50.506;4.472;2023-02-23T15:13:25;26.20;;;14.10;;
61460;SDS011;47325;50.506;4.472;2023-02-23T15:19:14;27.80;;;14.10;;
61460;SDS011;47325;50.506;4.472;2023-02-23T15:25:00;24.10;;;13.00;;
61460;SDS011;47325;50.506;4.472;2023-02-23T15:30:48;25.60;;;13.40;;
61460;SDS011;47325;50.506;4.472;2023-02-23T15:36:33;24.60;;;13.00;;
61460;SDS011;47325;50.506;4.472;2023-02-23T15:42:17;27.30;;;14.00;;
61460;SDS011;47325;50.506;4.472;2023-02-23T15:48:05;27.00;;;14.30;;
61460;SDS011;47325;50.506;4.472;2023-02-23T15:53:50;27.90;;;14.60;;
61460;SDS011;47325;50.506;4.472;2023-02-23T15:59:36;27.60;;;14.80;;
61460;SDS011;47325;50.506;4.472;2023-02-23T16:05:28;29.70;;;14.90;;
61460;SDS011;47325;50.506;4.472;2023-02-23T16:11:29;28.00;;;15.00;;
61460;SDS011;47325;50.506;4.472;2023-02-23T16:17:20;28.40;;;15.40;;
61460;SDS011;47325;50.506;4.472;2023-02-23T16:23:11;28.80;;;15.10;;
61460;SDS011;47325;50.506;4.472;2023-02-23T16:29:09;31.40;;;16.40;;
61460;SDS011;47325;50.506;4.472;2023-02-23T16:34:58;31.90;;;17.10;;
61460;SDS011;47325;50.506;4.472;2023-02-23T16:40:43;31.50;;;16.30;;
61460;SDS011;47325;50.506;4.472;2023-02-23T16:46:27;31.20;;;16.10;;
61460;SDS011;47325;50.506;4.472;2023-02-23T16:52:16;31.60;;;16.40;;
61460;SDS011;47325;50.506;4.472;2023-02-23T16:58:01;32.30;;;17.30;;
61460;SDS011;47325;50.506;4.472;2023-02-23T17:03:45;30.50;;;16.00;;
61460;SDS011;47325;50.506;4.472;2023-02-23T17:09:37;31.70;;;15.90;;
61460;SDS011;47325;50.506;4.472;2023-02-23T17:15:26;30.00;;;16.70;;
61460;SDS011;47325;50.506;4.472;2023-02-23T17:21:11;30.60;;;15.80;;
61460;SDS011;47325;50.506;4.472;2023-02-23T17:26:55;34.10;;;17.30;;
61460;SDS011;47325;50.506;4.472;2023-02-23T17:32:38;33.70;;;16.60;;
61460;SDS011;47325;50.506;4.472;2023-02-23T17:38:23;32.10;;;15.90;;
61460;SDS011;47325;50.506;4.472;2023-02-23T17:44:07;36.20;;;17.40;;
61460;SDS011;47325;50.506;4.472;2023-02-23T17:49:52;48.20;;;20.10;;
61460;SDS011;47325;50.506;4.472;2023-02-23T17:55:36;51.50;;;21.20;;
61460;SDS011;47325;50.506;4.472;2023-02-23T18:01:20;48.90;;;20.30;;
61460;SDS011;47325;50.506;4.472;2023-02-23T18:07:05;46.00;;;20.00;;
61460;SDS011;47325;50.506;4.472;2023-02-23T18:12:49;41.80;;;19.90;;
61460;SDS011;47325;50.506;4.472;2023-02-23T18:18:33;40.20;;;19.30;;
61460;SDS011;47325;50.506;4.472;2023-02-23T18:24:17;41.00;;;19.10;;
61460;SDS011;47325;50.506;4.472;2023-02-23T18:30:01;41.40;;;19.20;;
61460;SDS011;47325;50.506;4.472;2023-02-23T18:35:45;55.80;;;23.00;;
61460;SDS011;47325;50.506;4.472;2023-02-23T18:41:29;54.80;;;23.10;;
61460;SDS011;47325;50.506;4.472;2023-02-23T18:47:13;51.90;;;21.90;;
61460;SDS011;47325;50.506;4.472;2023-02-23T18:52:57;50.60;;;21.70;;
61460;SDS011;47325;50.506;4.472;2023-02-23T18:58:42;47.50;;;22.00;;
61460;SDS011;47325;50.506;4.472;2023-02-23T19:04:26;42.30;;;20.00;;
61460;SDS011;47325;50.506;4.472;2023-02-23T19:10:12;44.90;;;20.20;;
61460;SDS011;47325;50.506;4.472;2023-02-23T19:15:56;43.00;;;20.20;;
61460;SDS011;47325;50.506;4.472;2023-02-23T19:21:40;40.50;;;19.30;;
61460;SDS011;47325;50.506;4.472;2023-02-23T19:27:25;37.80;;;18.60;;
61460;SDS011;47325;50.506;4.472;2023-02-23T19:33:09;42.10;;;19.30;;
61460;SDS011;47325;50.506;4.472;2023-02-23T19:38:54;41.30;;;20.30;;
61460;SDS011;47325;50.506;4.472;2023-02-23T19:44:38;40.70;;;19.00;;
61460;SDS011;47325;50.506;4.472;2023-02-23T19:50:22;36.60;;;18.10;;
61460;SDS011;47325;50.506;4.472;2023-02-23T19:56:06;37.50;;;17.40;;
61460;SDS011;47325;50.506;4.472;2023-02-23T20:01:50;38.40;;;17.60;;
61460;SDS011;47325;50.506;4.472;2023-02-23T20:07:35;35.60;;;18.00;;
61460;SDS011;47325;50.506;4.472;2023-02-23T20:13:18;33.60;;;16.90;;
61460;SDS011;47325;50.506;4.472;2023-02-23T20:19:02;33.70;;;17.50;;
61460;SDS011;47325;50.506;4.472;2023-02-23T20:24:46;33.00;;;16.50;;
61460;SDS011;47325;50.506;4.472;2023-02-23T20:30:30;30.60;;;16.00;;
61460;SDS011;47325;50.506;4.472;2023-02-23T20:36:14;29.80;;;15.60;;
61460;SDS011;47325;50.506;4.472;2023-02-23T20:41:58;32.70;;;15.60;;
61460;SDS011;47325;50.506;4.472;2023-02-23T20:47:42;29.50;;;15.60;;
61460;SDS011;47325;50.506;4.472;2023-02-23T20:53:26;31.70;;;15.90;;
61460;SDS011;47325;50.506;4.472;2023-02-23T20:59:12;28.60;;;15.20;;
61460;SDS011;47325;50.506;4.472;2023-02-23T21:04:55;28.60;;;15.10;;
61460;SDS011;47325;50.506;4.472;2023-02-23T21:10:39;27.00;;;15.00;;
61460;SDS011;47325;50.506;4.472;2023-02-23T21:16:24;28.60;;;15.30;;
61460;SDS011;47325;50.506;4.472;2023-02-23T21:22:08;27.00;;;15.10;;
61460;SDS011;47325;50.506;4.472;2023-02-23T21:27:51;25.20;;;14.10;;
61460;SDS011;47325;50.506;4.472;2023-02-23T21:33:35;26.90;;;14.20;;
61460;SDS011;47325;50.506;4.472;2023-02-23T21:39:19;24.20;;;13.80;;
61460;SDS011;47325;50.506;4.472;2023-02-23T21:45:03;25.20;;;13.90;;
61460;SDS011;47325;50.506;4.472;2023-02-23T21:50:47;24.80;;;13.60;;
61460;SDS011;47325;50.506;4.472;2023-02-23T21:56:31;24.40;;;13.60;;
61460;SDS011;47325;50.506;4.472;2023-02-23T22:02:14;23.80;;;13.20;;
61460;SDS011;47325;50.506;4.472;2023-02-23T22:07:58;23.30;;;13.20;;
61460;SDS011;47325;50.506;4.472;2023-02-23T22:13:42;22.80;;;13.10;;
61460;SDS011;47325;50.506;4.472;2023-02-23T22:19:26;20.40;;;12.30;;
61460;SDS011;47325;50.506;4.472;2023-02-23T22:25:10;21.50;;;12.60;;
61460;SDS011;47325;50.506;4.472;2023-02-23T22:30:54;22.90;;;13.00;;
61460;SDS011;47325;50.506;4.472;2023-02-23T22:36:37;22.40;;;12.70;;
61460;SDS011;47325;50.506;4.472;2023-02-23T22:42:21;21.30;;;12.30;;
61460;SDS011;47325;50.506;4.472;2023-02-23T22:48:05;19.60;;;12.50;;
61460;SDS011;47325;50.506;4.472;2023-02-23T22:53:49;22.80;;;13.50;;
61460;SDS011;47325;50.506;4.472;2023-02-23T22:59:33;24.00;;;13.00;;
61460;SDS011;47325;50.506;4.472;2023-02-23T23:05:16;21.80;;;12.30;;
61460;SDS011;47325;50.506;4.472;2023-02-23T23:11:04;22.00;;;12.60;;
61460;SDS011;47325;50.506;4.472;2023-02-23T23:16:48;21.00;;;12.00;;
61460;SDS011;47325;50.506;4.472;2023-02-23T23:22:32;22.30;;;11.90;;
61460;SDS011;47325;50.506;4.472;2023-02-23T23:28:15;19.80;;;11.70;;
61460;SDS011;47325;50.506;4.472;2023-02-23T23:34:00;21.40;;;11.20;;
61460;SDS011;47325;50.506;4.472;2023-02-23T23:39:44;18.90;;;11.40;;
61460;SDS011;47325;50.506;4.472;2023-02-23T23:45:28;18.30;;;10.80;;
61460;SDS011;47325;50.506;4.472;2023-02-23T23:51:12;17.70;;;10.70;;
61460;SDS011;47325;50.506;4.472;2023-02-23T23:56:56;19.60;;;10.00;;
